createdAt,value
2018-02-02T00:01:03.386Z,90.10
2018-02-02T00:03:33.215Z,89.40
2018-02-02T00:06:09.337Z,89.10
2018-02-02T00:08:36.817Z,89.00
2018-02-02T00:11:05.141Z,88.50
2018-02-02T00:13:36.941Z,88.50
2018-02-02T00:16:14.844Z,89.00
2018-02-02T00:18:43.553Z,88.70
2018-02-02T00:21:11.209Z,88.70
2018-02-02T00:23:38.699Z,88.70
2018-02-02T00:26:07.009Z,89.30
2018-02-02T00:28:41.992Z,89.30
2018-02-02T00:31:10.441Z,89.20
2018-02-02T00:34:08.368Z,88.90
2018-02-02T00:36:35.981Z,89.00
2018-02-02T00:39:03.640Z,89.00
2018-02-02T00:41:33.448Z,88.90
2018-02-02T00:44:03.076Z,88.40
2018-02-02T00:46:47.000Z,88.90
2018-02-02T00:49:15.802Z,89.10
2018-02-02T00:51:54.500Z,89.10
2018-02-02T00:54:32.205Z,89.10
2018-02-02T00:57:16.151Z,89.40
2018-02-02T00:59:43.736Z,89.50
2018-02-02T01:02:11.228Z,89.50
2018-02-02T01:04:38.716Z,89.10
2018-02-02T01:07:06.220Z,89.00
2018-02-02T01:09:33.855Z,89.20
2018-02-02T01:12:08.104Z,89.10
2018-02-02T01:14:35.596Z,89.40
2018-02-02T01:17:03.103Z,89.40
2018-02-02T01:19:32.713Z,89.50
2018-02-02T01:22:03.527Z,89.40
2018-02-02T01:24:32.360Z,89.40
2018-02-02T01:27:03.351Z,89.40
2018-02-02T01:29:33.336Z,89.40
2018-02-02T01:32:03.621Z,89.40
2018-02-02T01:34:32.696Z,89.40
2018-02-02T01:37:01.880Z,89.30
2018-02-02T01:39:30.711Z,89.40
2018-02-02T01:42:02.209Z,89.60
2018-02-02T01:44:32.560Z,89.60
2018-02-02T01:47:02.721Z,89.80
2018-02-02T01:49:31.549Z,90.00
2018-02-02T01:52:02.497Z,90.20
2018-02-02T01:54:31.536Z,90.20
2018-02-02T01:57:00.788Z,90.20
2018-02-02T01:59:31.777Z,90.20
2018-02-02T02:02:02.568Z,90.20
2018-02-02T02:04:35.988Z,90.30
2018-02-02T02:07:03.879Z,90.20
2018-02-02T02:09:31.737Z,90.20
2018-02-02T02:12:11.401Z,90.20
2018-02-02T02:14:38.885Z,90.20
2018-02-02T02:17:07.160Z,90.10
2018-02-02T02:19:34.658Z,90.10
2018-02-02T02:22:02.184Z,90.10
2018-02-02T02:24:31.756Z,90.10
2018-02-02T02:27:01.432Z,90.60
2018-02-02T02:29:31.257Z,91.00
2018-02-02T02:32:00.497Z,91.40
2018-02-02T02:34:31.597Z,92.20
2018-02-02T02:37:01.446Z,92.30
2018-02-02T02:39:31.400Z,92.20
2018-02-02T02:42:01.727Z,92.90
2018-02-02T02:44:30.536Z,93.00
2018-02-02T02:47:00.326Z,93.30
2018-02-02T02:49:30.493Z,93.10
2018-02-02T02:52:00.864Z,93.30
2018-02-02T02:54:31.476Z,93.40
2018-02-02T02:57:00.746Z,99.90
2018-02-02T02:59:30.568Z,99.90
2018-02-02T03:02:01.399Z,99.90
2018-02-02T03:04:31.325Z,99.90
2018-02-02T03:07:00.827Z,99.90
2018-02-02T03:09:31.659Z,99.90
2018-02-02T03:12:01.340Z,99.90
2018-02-02T03:14:30.821Z,99.90
2018-02-02T03:17:01.476Z,99.90
2018-02-02T03:19:31.120Z,99.90
2018-02-02T03:22:00.329Z,99.90
2018-02-02T03:24:31.660Z,99.90
2018-02-02T03:27:00.725Z,99.90
2018-02-02T03:29:30.699Z,99.90
2018-02-02T03:32:00.997Z,99.90
2018-02-02T03:34:31.545Z,99.90
2018-02-02T03:37:01.596Z,99.90
2018-02-02T03:39:31.821Z,99.90
2018-02-02T03:42:01.911Z,99.90
2018-02-02T03:44:31.560Z,99.90
2018-02-02T03:47:00.828Z,99.90
2018-02-02T03:49:30.212Z,99.90
2018-02-02T03:52:10.259Z,99.90
2018-02-02T03:54:37.756Z,99.90
2018-02-02T03:57:05.376Z,99.90
2018-02-02T03:59:32.868Z,99.90
2018-02-02T04:02:01.704Z,99.90
2018-02-02T04:04:31.756Z,99.90
2018-02-02T04:07:00.973Z,99.90
2018-02-02T04:09:31.692Z,99.90
2018-02-02T04:12:01.393Z,99.90
2018-02-02T04:14:40.001Z,99.90
2018-02-02T04:17:07.507Z,99.90
2018-02-02T04:19:35.017Z,99.90
2018-02-02T04:22:03.272Z,99.90
2018-02-02T04:24:31.652Z,99.90
2018-02-02T04:27:01.529Z,99.90
2018-02-02T04:29:42.840Z,99.90
2018-02-02T04:32:10.329Z,99.90
2018-02-02T04:34:37.836Z,99.90
2018-02-02T04:37:05.328Z,99.90
2018-02-02T04:39:33.624Z,99.90
2018-02-02T04:42:02.045Z,99.90
2018-02-02T04:44:31.888Z,99.90
2018-02-02T04:47:01.785Z,99.90
2018-02-02T04:49:31.756Z,99.90
2018-02-02T04:52:02.537Z,99.90
2018-02-02T04:54:31.896Z,99.90
2018-02-02T04:57:01.883Z,99.90
2018-02-02T04:59:31.909Z,99.90
2018-02-02T05:02:01.718Z,99.90
2018-02-02T05:04:31.652Z,99.90
2018-02-02T05:07:01.538Z,99.90
2018-02-02T05:09:30.596Z,99.90
2018-02-02T05:12:01.049Z,99.90
2018-02-02T05:14:31.909Z,99.90
2018-02-02T05:17:01.725Z,99.90
2018-02-02T05:19:32.609Z,99.90
2018-02-02T05:22:01.429Z,96.30
2018-02-02T05:24:30.793Z,96.10
2018-02-02T05:27:00.717Z,95.10
2018-02-02T05:29:30.513Z,95.00
2018-02-02T05:32:01.554Z,95.00
2018-02-02T05:34:31.748Z,95.10
2018-02-02T05:37:01.765Z,95.10
2018-02-02T05:39:30.461Z,95.00
2018-02-02T05:42:00.468Z,95.00
2018-02-02T05:44:30.637Z,94.90
2018-02-02T05:46:59.948Z,95.00
2018-02-02T05:49:29.892Z,95.00
2018-02-02T05:52:00.537Z,94.90
2018-02-02T05:54:29.988Z,95.00
2018-02-02T05:56:59.901Z,95.00
2018-02-02T05:59:29.573Z,95.00
2018-02-02T06:02:00.562Z,95.00
2018-02-02T06:04:32.912Z,94.90
2018-02-02T06:07:01.584Z,95.00
2018-02-02T06:09:40.001Z,95.00
2018-02-02T06:12:07.524Z,94.90
2018-02-02T06:14:35.622Z,94.90
2018-02-02T06:17:03.118Z,94.90
2018-02-02T06:19:37.373Z,95.00
2018-02-02T06:22:04.886Z,95.00
2018-02-02T06:24:33.128Z,95.00
2018-02-02T06:27:00.928Z,94.90
2018-02-02T06:29:30.044Z,94.70
2018-02-02T06:31:59.678Z,94.70
2018-02-02T06:34:29.659Z,94.70
2018-02-02T06:37:02.405Z,94.80
2018-02-02T06:39:30.918Z,94.70
2018-02-02T06:41:59.656Z,94.70
2018-02-02T06:44:29.957Z,94.50
2018-02-02T06:46:59.985Z,94.30
2018-02-02T06:49:29.077Z,94.30
2018-02-02T06:52:00.508Z,94.30
2018-02-02T06:54:30.537Z,94.30
2018-02-02T06:57:00.241Z,94.20
2018-02-02T06:59:29.609Z,94.30
2018-02-02T07:02:00.046Z,94.30
2018-02-02T07:04:29.667Z,94.30
2018-02-02T07:06:58.633Z,94.30
2018-02-02T07:09:30.056Z,94.20
2018-02-02T07:12:00.626Z,94.20
2018-02-02T07:14:39.057Z,94.00
2018-02-02T07:17:06.564Z,94.10
2018-02-02T07:19:34.845Z,94.30
2018-02-02T07:22:03.117Z,94.30
2018-02-02T07:24:30.935Z,94.40
2018-02-02T07:27:00.052Z,94.50
2018-02-02T07:29:31.066Z,94.40
2018-02-02T07:32:00.204Z,94.30
2018-02-02T07:34:30.632Z,94.20
2018-02-02T07:37:00.146Z,94.00
2018-02-02T07:39:29.170Z,94.00
2018-02-02T07:41:59.662Z,94.00
2018-02-02T07:44:27.855Z,93.90
2018-02-02T07:46:58.246Z,94.00
2018-02-02T07:49:28.914Z,93.90
2018-02-02T07:51:59.186Z,93.70
2018-02-02T07:54:26.677Z,93.70
2018-02-02T07:56:54.184Z,95.00
2018-02-02T07:59:22.463Z,94.00
2018-02-02T08:01:49.993Z,94.00
2018-02-02T08:04:17.886Z,93.90
2018-02-02T08:06:46.593Z,93.70
2018-02-02T08:09:14.130Z,93.70
2018-02-02T08:11:41.644Z,95.90
2018-02-02T08:14:09.816Z,93.80
2018-02-02T08:16:38.105Z,93.70
2018-02-02T08:19:05.601Z,93.40
2018-02-02T08:21:34.997Z,93.40
2018-02-02T08:24:06.825Z,93.70
2018-02-02T08:26:36.688Z,93.70
2018-02-02T08:29:15.105Z,93.60
2018-02-02T08:31:42.860Z,93.80
2018-02-02T08:34:10.449Z,93.90
2018-02-02T08:36:38.725Z,94.60
2018-02-02T08:39:06.469Z,94.30
2018-02-02T08:41:35.395Z,94.40
2018-02-02T08:44:04.987Z,94.50
2018-02-02T08:46:44.180Z,94.40
2018-02-02T08:49:12.437Z,94.30
2018-02-02T08:51:40.045Z,94.30
2018-02-02T08:54:09.052Z,94.70
2018-02-02T08:56:39.469Z,94.80
2018-02-02T08:59:22.457Z,94.70
2018-02-02T09:02:00.121Z,94.70
2018-02-02T09:04:27.612Z,94.70
2018-02-02T09:07:03.132Z,95.00
2018-02-02T09:09:30.620Z,95.30
2018-02-02T09:11:58.124Z,95.50
2018-02-02T09:14:26.390Z,96.30
2018-02-02T09:16:54.780Z,96.30
2018-02-02T09:19:24.696Z,96.20
2018-02-02T09:21:54.281Z,96.10
2018-02-02T09:24:24.644Z,96.00
2018-02-02T09:26:54.104Z,96.40
2018-02-02T09:29:22.559Z,96.40
2018-02-02T09:31:52.356Z,96.20
2018-02-02T09:34:22.568Z,96.40
2018-02-02T09:36:52.322Z,96.40
2018-02-02T09:39:22.669Z,96.20
2018-02-02T09:41:58.336Z,96.10
2018-02-02T09:44:26.916Z,96.00
2018-02-02T09:46:54.432Z,95.90
2018-02-02T09:49:23.404Z,95.40
2018-02-02T09:51:53.630Z,95.20
2018-02-02T09:54:23.465Z,95.20
2018-02-02T09:56:53.745Z,95.30
2018-02-02T09:59:28.640Z,95.30
2018-02-02T10:01:57.858Z,95.20
2018-02-02T10:04:25.964Z,94.90
2018-02-02T10:06:55.094Z,94.50
2018-02-02T10:09:28.311Z,94.20
2018-02-02T10:11:55.837Z,94.40
2018-02-02T10:14:24.675Z,94.40
2018-02-02T10:16:53.849Z,94.50
2018-02-02T10:19:31.265Z,94.60
2018-02-02T10:21:58.748Z,94.60
2018-02-02T10:24:26.240Z,94.50
2018-02-02T10:26:55.015Z,94.80
2018-02-02T10:29:24.621Z,94.70
2018-02-02T10:32:08.334Z,95.00
2018-02-02T10:37:23.425Z,95.30
2018-02-02T10:39:57.221Z,95.10
2018-02-02T10:42:25.500Z,95.10
2018-02-02T10:44:55.488Z,94.80
2018-02-02T10:47:24.797Z,94.60
2018-02-02T10:49:54.935Z,94.10
2018-02-02T10:52:24.520Z,93.50
2018-02-02T10:54:55.008Z,93.40
2018-02-02T10:57:26.326Z,93.30
2018-02-02T10:59:56.057Z,93.40
2018-02-02T11:02:34.700Z,93.00
2018-02-02T11:05:02.198Z,93.00
2018-02-02T11:07:33.620Z,92.30
2018-02-02T11:10:01.137Z,92.60
2018-02-02T11:12:28.628Z,92.30
2018-02-02T11:14:56.141Z,91.90
2018-02-02T11:17:24.659Z,91.10
2018-02-02T11:20:06.042Z,91.00
2018-02-02T11:22:33.709Z,90.90
2018-02-02T11:25:01.224Z,90.40
2018-02-02T11:27:29.101Z,90.10
2018-02-02T11:29:56.604Z,89.40
2018-02-02T11:32:25.049Z,90.00
2018-02-02T11:34:55.076Z,89.40
2018-02-02T11:37:24.272Z,88.40
2018-02-02T11:39:54.149Z,87.80
2018-02-02T11:42:23.712Z,87.60
2018-02-02T11:45:22.877Z,86.80
2018-02-02T11:47:54.888Z,86.60
2018-02-02T11:50:26.737Z,86.60
2018-02-02T11:52:58.153Z,87.10
2018-02-02T11:55:26.436Z,86.70
2018-02-02T11:57:58.110Z,86.70
2018-02-02T12:00:26.076Z,86.20
2018-02-02T12:03:02.245Z,87.00
2018-02-02T12:05:34.109Z,86.40
2018-02-02T12:08:10.006Z,83.80
2018-02-02T12:10:53.289Z,80.70
2018-02-02T12:13:25.760Z,80.70
2018-02-02T12:15:54.033Z,78.50
2018-02-02T12:18:22.492Z,78.30
2018-02-02T12:20:54.489Z,79.10
2018-02-02T12:23:24.293Z,79.20
2018-02-02T12:26:03.134Z,80.20
2018-02-02T12:28:37.193Z,81.00
2018-02-02T12:31:08.490Z,77.10
2018-02-02T12:33:48.502Z,81.20
2018-02-02T12:36:29.888Z,81.10
2018-02-02T12:38:57.398Z,79.60
2018-02-02T12:41:30.537Z,80.40
2018-02-02T12:43:58.025Z,77.40
2018-02-02T12:46:26.313Z,73.50
2018-02-02T12:48:59.333Z,74.60
2018-02-02T12:51:26.849Z,74.70
2018-02-02T12:53:54.430Z,76.70
2018-02-02T12:56:22.310Z,75.30
2018-02-02T12:58:51.067Z,76.10
2018-02-02T13:01:24.225Z,80.10
2018-02-02T13:03:52.930Z,80.00
2018-02-02T13:06:22.441Z,81.00
2018-02-02T13:08:51.706Z,81.00
2018-02-02T13:11:21.747Z,80.90
2018-02-02T13:13:52.707Z,80.90
2018-02-02T13:16:24.597Z,80.30
2018-02-02T13:18:55.043Z,80.50
2018-02-02T13:21:31.621Z,80.70
2018-02-02T13:23:59.173Z,80.70
2018-02-02T13:26:26.745Z,81.60
2018-02-02T13:28:54.769Z,82.10
2018-02-02T13:31:26.797Z,82.10
2018-02-02T13:33:54.972Z,81.10
2018-02-02T13:36:23.865Z,81.20
2018-02-02T13:38:53.393Z,80.70
2018-02-02T13:41:22.842Z,81.30
2018-02-02T13:43:52.451Z,80.70
2018-02-02T13:46:22.940Z,80.60
2018-02-02T13:48:53.945Z,83.20
2018-02-02T13:51:29.097Z,83.20
2018-02-02T13:54:00.280Z,85.80
2018-02-02T13:56:33.345Z,85.20
2018-02-02T13:59:01.600Z,86.50
2018-02-02T14:01:40.753Z,86.50
2018-02-02T14:06:59.304Z,85.50
2018-02-02T14:09:27.127Z,85.80
2018-02-02T14:11:56.793Z,86.40
2018-02-02T14:14:25.349Z,87.00
2018-02-02T14:16:55.553Z,87.10
2018-02-02T14:19:33.572Z,87.10
2018-02-02T14:22:01.080Z,87.80
2018-02-02T14:24:31.780Z,88.30
2018-02-02T14:27:08.683Z,88.20
2018-02-02T14:29:36.173Z,87.70
2018-02-02T14:32:04.365Z,88.90
2018-02-02T14:35:03.882Z,89.50
2018-02-02T14:37:31.393Z,89.30
2018-02-02T14:39:58.884Z,88.90
2018-02-02T14:45:33.178Z,88.60
2018-02-02T14:48:00.685Z,89.20
2018-02-02T14:53:29.938Z,90.00
2018-02-02T14:55:59.332Z,89.70
2018-02-02T14:58:27.604Z,90.40
2018-02-02T15:00:55.278Z,90.10
2018-02-02T15:03:32.477Z,90.00
2018-02-02T15:06:09.097Z,90.00
2018-02-02T15:11:55.742Z,90.50
2018-02-02T15:14:29.407Z,90.50
2018-02-02T15:17:41.936Z,90.90
2018-02-02T15:23:25.362Z,91.20
2018-02-02T15:25:59.464Z,91.10
2018-02-02T15:28:27.001Z,91.20
2018-02-02T15:30:56.068Z,91.30
2018-02-02T15:33:24.355Z,91.40
2018-02-02T15:36:04.986Z,91.40
2018-02-02T15:38:50.132Z,91.10
2018-02-02T15:41:28.297Z,90.90
2018-02-02T15:46:50.665Z,91.50
2018-02-02T15:49:22.609Z,92.40
2018-02-02T15:52:22.705Z,92.80
2018-02-02T15:54:50.876Z,93.20
2018-02-02T15:57:23.753Z,93.60
2018-02-02T15:59:52.029Z,93.90
2018-02-02T16:02:30.977Z,93.90
2018-02-02T16:08:02.813Z,93.90
2018-02-02T16:10:31.896Z,93.80
2018-02-02T16:15:52.457Z,93.70
2018-02-02T16:18:21.069Z,93.80
2018-02-02T16:20:50.757Z,93.80
2018-02-02T16:26:23.388Z,93.80
2018-02-02T16:29:01.181Z,93.70
2018-02-02T16:34:21.398Z,93.30
2018-02-02T16:36:56.521Z,93.40
2018-02-02T16:39:47.235Z,93.80
2018-02-02T16:42:24.533Z,93.70
2018-02-02T16:47:51.220Z,94.60
2018-02-02T16:50:29.481Z,94.60
2018-02-02T16:52:56.972Z,94.90
2018-02-02T16:55:49.617Z,95.00
2018-02-02T16:58:21.372Z,95.00
2018-02-02T17:03:53.625Z,95.30
2018-02-02T17:06:24.584Z,95.40
2018-02-02T17:09:00.637Z,96.00
2018-02-02T17:11:28.129Z,95.80
2018-02-02T17:13:55.645Z,96.10
2018-02-02T17:16:31.821Z,96.10
2018-02-02T17:19:00.094Z,96.50
2018-02-02T17:21:50.245Z,96.50
2018-02-02T17:24:32.353Z,96.60
2018-02-02T17:26:59.848Z,96.60
2018-02-02T17:29:27.379Z,96.90
2018-02-02T17:31:54.872Z,97.00
2018-02-02T17:34:22.389Z,97.10
2018-02-02T17:36:49.886Z,97.00
2018-02-02T17:39:18.832Z,96.90
2018-02-02T17:41:48.329Z,96.90
2018-02-02T17:44:20.620Z,96.70
2018-02-02T17:46:51.197Z,96.70
2018-02-02T17:49:20.260Z,96.70
2018-02-02T17:51:51.596Z,96.70
2018-02-02T17:54:21.514Z,96.70
2018-02-02T17:56:50.889Z,96.90
2018-02-02T17:59:29.449Z,97.10
2018-02-02T18:04:55.065Z,97.20
2018-02-02T18:07:34.849Z,97.30
2018-02-02T18:10:05.875Z,97.20
2018-02-02T18:15:53.689Z,97.40
2018-02-02T18:18:21.530Z,97.40
2018-02-02T18:21:03.705Z,97.40
2018-02-02T18:23:33.957Z,97.70
2018-02-02T18:26:04.355Z,97.60
2018-02-02T18:28:33.321Z,97.70
2018-02-02T18:31:00.885Z,97.90
2018-02-02T18:33:29.641Z,98.20
2018-02-02T18:35:57.244Z,98.40
2018-02-02T18:38:24.749Z,98.70
2018-02-02T18:40:52.265Z,98.60
2018-02-02T18:43:19.798Z,99.20
2018-02-02T18:46:04.828Z,99.40
2018-02-02T18:48:50.094Z,99.30
2018-02-02T18:51:20.817Z,99.40
2018-02-02T18:53:59.013Z,99.90
2018-02-02T19:05:49.789Z,99.90
2018-02-02T19:08:20.668Z,99.90
2018-02-02T19:16:53.749Z,99.90
2018-02-02T19:19:22.213Z,99.90
2018-02-02T19:22:00.968Z,99.90
2018-02-02T19:25:05.029Z,99.90
2018-02-02T19:27:59.029Z,99.90
2018-02-02T19:30:26.533Z,99.90
2018-02-02T19:33:06.217Z,99.90
2018-02-02T19:35:33.747Z,99.90
2018-02-02T19:38:35.553Z,99.90
2018-02-02T19:41:03.061Z,99.90
2018-02-02T19:43:38.968Z,99.90
2018-02-02T19:46:06.485Z,99.90
2018-02-02T19:48:33.985Z,99.90
2018-02-02T19:51:01.498Z,99.90
2018-02-02T19:53:56.416Z,99.90
2018-02-02T19:56:27.768Z,99.90
2018-02-02T19:59:04.843Z,99.90
2018-02-02T20:01:32.585Z,99.90
2018-02-02T20:04:13.765Z,99.90
2018-02-02T20:09:37.955Z,99.90
2018-02-02T20:12:05.476Z,99.90
2018-02-02T20:15:13.828Z,99.90
2018-02-02T20:18:00.681Z,99.90
2018-02-02T20:20:30.145Z,99.90
2018-02-02T20:23:14.582Z,99.90
2018-02-02T20:25:45.177Z,99.90
2018-02-02T20:28:32.435Z,99.90
2018-02-02T20:31:01.229Z,99.70
2018-02-02T20:33:35.892Z,99.70
2018-02-02T20:36:04.045Z,99.60
2018-02-02T20:41:19.789Z,99.70
2018-02-02T20:46:50.894Z,99.90
2018-02-02T20:55:37.448Z,99.90
2018-02-02T21:01:02.789Z,99.80
2018-02-02T21:03:31.068Z,99.60
2018-02-02T21:05:58.561Z,99.60
2018-02-02T21:11:48.825Z,99.40
2018-02-02T21:14:25.374Z,99.40
2018-02-02T21:19:51.780Z,99.30
2018-02-02T21:22:51.436Z,98.90
2018-02-02T21:25:19.693Z,98.90
2018-02-02T21:27:47.200Z,98.90
2018-02-02T21:30:14.693Z,98.90
2018-02-02T21:32:47.469Z,98.70
2018-02-02T21:35:18.080Z,98.70
2018-02-02T21:52:58.906Z,98.40
2018-02-02T21:55:46.104Z,98.30
2018-02-02T21:58:23.352Z,98.30
2018-02-02T22:06:39.780Z,98.30
2018-02-02T22:09:20.250Z,98.30
2018-02-02T22:11:50.957Z,98.30
2018-02-02T22:23:25.794Z,98.00
2018-02-02T22:28:47.709Z,97.70
2018-02-02T22:34:49.893Z,96.90
2018-02-02T22:37:27.114Z,96.90
2018-02-02T22:52:13.428Z,97.30
2018-02-02T22:54:45.593Z,97.30
2018-02-02T22:57:46.193Z,97.30
2018-02-02T23:00:14.088Z,97.30
2018-02-02T23:02:42.961Z,97.30
2018-02-02T23:05:26.256Z,97.00
2018-02-02T23:11:12.926Z,97.00
2018-02-02T23:14:12.452Z,96.70
2018-02-02T23:23:12.545Z,96.60
2018-02-02T23:25:58.329Z,96.70
2018-02-02T23:43:16.073Z,96.60
2018-02-02T23:45:54.761Z,96.30
2018-02-02T23:51:28.053Z,96.80
2018-02-02T23:59:44.761Z,96.80
